Archival Weather

Snohomish County (Paine Fld)

Everett, Washington (KPAE)

Report from: Tuesday, May 21, 2024 1:53 AM PDT
Current time: Saturday, June 22, 2024 3:09 AM PDT

Current weather – Weather history – Daily summaries
Weather forecast

Temperature10.6°C (51.1°F)
Dew point7.2°C (45.0°F)
Winds 3 kts (1.5 m/s, 3.5 mph) Southeast (130°)
Visibility10 mi. (16.1 km)
Clouds Ceiling: Overcast 2,900 ft. (884 m)
Altimeter30.20 in.Hg (1023 mB)
Relative humidity79 %
Density altitude-692 ft. (-211 m)
Sea-level pressure102.3 kPa (1023 mB, 30.19 in.Hg)
Remarks Fully automated report
Automated weather observing station with precipitation discriminator
Pressure falling more slowly
Flight conditions Marginal Visual Meteorological Conditions
Raw dataKPAE 210853Z AUTO 13003KT 10SM OVC029 11/07 A3020 RMK AO2 SLP225 T01060072 56003
An error has occurred. This application may no longer respond until reloaded. Reload 🗙